Time;durP1;ratioP1;P1;durP2;ratioP2;P2;SDS_P1;SDS_P2;PMS_P1;PMS_P2;Temp;Humidity;BMP_temperature;BMP_pressure;BME280_temperature;BME280_humidity;BME280_pressure;Samples;Min_cycle;Max_cycle;Signal;HPM_P1;HPM_P2
2022/09/01 00:00:40;;;;;;;9.55;1.80;;;;;;;;;;5039059;28;20048;-71
2022/09/01 00:03:09;;;;;;;6.30;1.60;;;;;;;;;;5042436;28;20053;-70
2022/09/01 00:05:36;;;;;;;5.18;1.63;;;;;;;;;;5052857;28;20106;-70
2022/09/01 00:08:03;;;;;;;6.88;1.48;;;;;;;;;;5047797;28;20052;-71
2022/09/01 00:10:29;;;;;;;4.25;1.80;;;;;;;;;;5047864;28;20040;-71
2022/09/01 00:12:55;;;;;;;5.50;1.50;;;;;;;;;;5053314;28;20091;-71
2022/09/01 00:15:21;;;;;;;4.30;1.55;;;;;;;;;;5055676;28;20457;-71
2022/09/01 00:17:48;;;;;;;3.97;1.15;;;;;;;;;;5056065;28;20049;-71
2022/09/01 00:20:14;;;;;;;9.90;2.08;;;;;;;;;;5049310;28;20376;-71
2022/09/01 00:22:40;;;;;;;4.82;1.80;;;;;;;;;;5053431;28;21359;-71
2022/09/01 00:25:06;;;;;;;3.92;1.38;;;;;;;;;;5032084;28;20048;-71
2022/09/01 00:27:33;;;;;;;6.10;1.42;;;;;;;;;;5044481;28;20128;-71
2022/09/01 00:30:00;;;;;;;5.32;1.60;;;;;;;;;;5053735;28;20036;-71
2022/09/01 00:32:26;;;;;;;5.47;1.50;;;;;;;;;;5054679;28;20052;-71
2022/09/01 00:34:53;;;;;;;3.08;1.35;;;;;;;;;;5042466;28;20404;-71
2022/09/01 00:37:19;;;;;;;5.05;1.75;;;;;;;;;;5037979;28;20044;-71
2022/09/01 00:39:45;;;;;;;5.93;1.60;;;;;;;;;;5037011;28;20052;-71
2022/09/01 00:42:11;;;;;;;2.85;1.30;;;;;;;;;;5036387;28;20044;-71
2022/09/01 00:44:37;;;;;;;6.15;1.70;;;;;;;;;;5038040;28;20045;-71
2022/09/01 00:47:05;;;;;;;6.07;1.50;;;;;;;;;;5034712;28;20481;-71
2022/09/01 00:49:34;;;;;;;3.88;1.77;;;;;;;;;;5032590;28;20060;-71
2022/09/01 00:52:03;;;;;;;4.90;1.67;;;;;;;;;;5036396;28;20060;-71
2022/09/01 00:54:33;;;;;;;5.97;1.65;;;;;;;;;;5034538;28;20084;-71
2022/09/01 00:57:00;;;;;;;2.50;1.27;;;;;;;;;;5035671;28;20048;-71
2022/09/01 00:59:27;;;;;;;4.32;1.27;;;;;;;;;;5037972;28;20061;-71
2022/09/01 01:01:53;;;;;;;3.97;1.30;;;;;;;;;;5036569;28;20117;-71
2022/09/01 01:04:19;;;;;;;4.47;1.52;;;;;;;;;;5038095;28;20076;-71
2022/09/01 01:06:48;;;;;;;4.20;1.30;;;;;;;;;;5032659;28;20428;-71
2022/09/01 01:09:16;;;;;;;3.65;1.45;;;;;;;;;;5033618;28;20044;-71
2022/09/01 01:11:46;;;;;;;3.05;1.42;;;;;;;;;;5035869;28;20041;-71
2022/09/01 01:14:14;;;;;;;3.75;1.50;;;;;;;;;;5037381;28;20053;-71
2022/09/01 01:16:43;;;;;;;4.22;1.63;;;;;;;;;;5036471;28;20088;-71
2022/09/01 01:24:57;;;;;;;3.83;1.33;;;;;;;;;;5039007;28;20131;-71
2022/09/01 01:27:23;;;;;;;2.47;1.15;;;;;;;;;;5040632;28;20118;-71
2022/09/01 01:29:51;;;;;;;4.82;1.40;;;;;;;;;;5038368;28;20038;-71
2022/09/01 01:32:17;;;;;;;4.20;1.30;;;;;;;;;;5036445;28;20052;-71
2022/09/01 01:34:45;;;;;;;6.05;1.55;;;;;;;;;;5035248;28;20094;-71
2022/09/01 01:37:13;;;;;;;3.22;1.50;;;;;;;;;;5037309;28;20473;-71
2022/09/01 01:39:41;;;;;;;3.85;1.65;;;;;;;;;;5036936;28;20057;-71
2022/09/01 01:42:08;;;;;;;4.05;1.60;;;;;;;;;;5039000;28;20553;-71
2022/09/01 01:44:36;;;;;;;4.57;1.75;;;;;;;;;;5037349;28;20113;-71
2022/09/01 01:47:07;;;;;;;5.00;1.60;;;;;;;;;;5037748;28;20053;-71
2022/09/01 01:49:33;;;;;;;4.90;1.65;;;;;;;;;;5036584;28;20117;-71
2022/09/01 01:52:00;;;;;;;7.38;1.83;;;;;;;;;;5039354;28;20052;-71
2022/09/01 01:54:30;;;;;;;2.70;1.58;;;;;;;;;;5041488;28;20058;-71
2022/09/01 01:56:57;;;;;;;3.97;1.98;;;;;;;;;;5035345;28;20140;-71
2022/09/01 01:59:25;;;;;;;6.05;1.65;;;;;;;;;;5034378;28;20074;-71
2022/09/01 02:01:51;;;;;;;2.83;1.30;;;;;;;;;;5037717;28;20543;-70
2022/09/01 02:04:19;;;;;;;4.97;1.60;;;;;;;;;;5044142;28;20064;-71
2022/09/01 02:06:46;;;;;;;2.78;1.50;;;;;;;;;;5043023;28;20052;-71
2022/09/01 02:09:13;;;;;;;5.68;1.92;;;;;;;;;;5043006;28;20071;-71
2022/09/01 02:11:40;;;;;;;3.00;1.58;;;;;;;;;;5042938;28;20417;-71
2022/09/01 02:14:07;;;;;;;3.97;1.35;;;;;;;;;;5044794;28;20480;-71
2022/09/01 02:16:33;;;;;;;5.38;1.70;;;;;;;;;;5043156;28;20045;-71
2022/09/01 02:19:00;;;;;;;5.80;1.60;;;;;;;;;;5044391;28;20440;-71
2022/09/01 02:21:27;;;;;;;5.35;1.73;;;;;;;;;;5046729;28;20684;-70
2022/09/01 02:23:59;;;;;;;7.95;1.77;;;;;;;;;;5045044;28;20063;-71
2022/09/01 02:26:30;;;;;;;3.90;1.40;;;;;;;;;;5044795;28;20064;-71
2022/09/01 02:29:02;;;;;;;4.55;1.73;;;;;;;;;;5042588;28;20049;-71
2022/09/01 02:31:28;;;;;;;4.80;1.90;;;;;;;;;;5044024;28;20134;-71
2022/09/01 02:33:54;;;;;;;3.53;1.85;;;;;;;;;;5040233;28;20051;-69
2022/09/01 02:36:21;;;;;;;4.65;1.40;;;;;;;;;;5041967;28;20136;-69
2022/09/01 02:38:49;;;;;;;3.20;1.60;;;;;;;;;;5042340;28;20041;-69
2022/09/01 02:41:18;;;;;;;5.60;1.90;;;;;;;;;;5042094;28;20040;-69
2022/09/01 02:43:45;;;;;;;4.63;1.70;;;;;;;;;;5040149;28;20068;-69
2022/09/01 02:46:13;;;;;;;4.13;1.75;;;;;;;;;;5030448;28;20053;-68
2022/09/01 02:48:40;;;;;;;5.85;1.42;;;;;;;;;;5031431;28;20044;-69
2022/09/01 02:51:08;;;;;;;3.13;1.45;;;;;;;;;;5037065;28;20448;-69
2022/09/01 02:53:34;;;;;;;3.05;1.70;;;;;;;;;;5041353;28;20574;-69
2022/09/01 02:56:01;;;;;;;2.92;1.45;;;;;;;;;;5079785;28;20159;-69
2022/09/01 02:58:28;;;;;;;4.65;1.60;;;;;;;;;;5040783;28;20045;-69
2022/09/01 03:00:55;;;;;;;3.38;1.40;;;;;;;;;;5035335;28;20131;-68
2022/09/01 03:03:22;;;;;;;4.22;2.05;;;;;;;;;;5037900;28;20068;-69
2022/09/01 03:05:54;;;;;;;6.72;1.80;;;;;;;;;;5032315;28;20477;-68
2022/09/01 03:08:20;;;;;;;3.95;1.88;;;;;;;;;;5034236;28;20602;-70
2022/09/01 03:10:47;;;;;;;4.47;2.33;;;;;;;;;;5032974;28;20637;-70
2022/09/01 03:13:15;;;;;;;4.75;1.80;;;;;;;;;;5034334;28;20401;-68
2022/09/01 03:15:42;;;;;;;4.13;1.73;;;;;;;;;;5031019;28;20088;-68
2022/09/01 03:18:09;;;;;;;4.30;1.63;;;;;;;;;;5033275;28;20882;-68
2022/09/01 03:20:36;;;;;;;4.15;1.67;;;;;;;;;;5035169;28;20055;-68
2022/09/01 03:23:06;;;;;;;2.90;1.52;;;;;;;;;;5035629;28;20033;-68
2022/09/01 03:25:33;;;;;;;3.33;1.70;;;;;;;;;;5031263;28;20044;-68
2022/09/01 03:28:00;;;;;;;5.95;2.00;;;;;;;;;;5032940;28;20148;-68
2022/09/01 03:30:28;;;;;;;3.47;1.70;;;;;;;;;;5033516;28;20155;-69
2022/09/01 03:32:55;;;;;;;3.45;1.80;;;;;;;;;;5038992;28;20080;-68
2022/09/01 03:35:22;;;;;;;4.55;1.90;;;;;;;;;;5032468;28;20037;-68
2022/09/01 03:37:48;;;;;;;5.95;2.10;;;;;;;;;;5033981;28;20037;-68
2022/09/01 03:40:14;;;;;;;2.78;1.60;;;;;;;;;;5069439;28;20098;-68
2022/09/01 03:42:42;;;;;;;3.67;1.70;;;;;;;;;;5036602;28;20037;-68
2022/09/01 03:45:11;;;;;;;6.88;2.17;;;;;;;;;;5031226;28;20102;-69
2022/09/01 03:47:39;;;;;;;7.95;1.52;;;;;;;;;;5033543;28;20194;-69
2022/09/01 03:50:19;;;;;;;7.65;2.00;;;;;;;;;;5031676;28;20036;-68
2022/09/01 03:52:48;;;;;;;3.00;1.83;;;;;;;;;;5030258;28;20189;-69
2022/09/01 03:55:22;;;;;;;4.57;2.03;;;;;;;;;;5032438;28;20076;-68
2022/09/01 03:57:49;;;;;;;3.25;1.80;;;;;;;;;;5017556;28;20087;-69
2022/09/01 04:00:19;;;;;;;5.10;2.25;;;;;;;;;;5049977;28;20037;-68
2022/09/01 04:02:49;;;;;;;3.95;1.80;;;;;;;;;;5028873;28;20071;-68
2022/09/01 04:05:16;;;;;;;3.42;1.90;;;;;;;;;;5035470;28;20110;-68
2022/09/01 04:07:44;;;;;;;5.97;1.90;;;;;;;;;;5065704;28;20136;-68
2022/09/01 04:10:11;;;;;;;4.03;1.67;;;;;;;;;;5041020;28;20045;-68
2022/09/01 04:12:38;;;;;;;3.45;1.80;;;;;;;;;;5043776;28;20140;-68
2022/09/01 04:15:06;;;;;;;4.72;1.90;;;;;;;;;;5041279;28;20077;-68
2022/09/01 04:20:19;;;;;;;3.20;1.90;;;;;;;;;;5046683;28;20063;-68
2022/09/01 04:22:48;;;;;;;3.25;1.90;;;;;;;;;;5044380;28;20373;-68
2022/09/01 04:25:15;;;;;;;3.70;1.73;;;;;;;;;;5040557;28;20052;-68
2022/09/01 04:27:41;;;;;;;3.70;2.30;;;;;;;;;;5048547;28;20040;-68
2022/09/01 04:30:09;;;;;;;6.40;1.80;;;;;;;;;;5055684;28;20041;-68
2022/09/01 04:32:36;;;;;;;4.35;1.92;;;;;;;;;;5050628;28;20377;-68
2022/09/01 04:35:04;;;;;;;6.82;1.90;;;;;;;;;;5048230;28;20415;-70
2022/09/01 04:37:30;;;;;;;3.75;1.98;;;;;;;;;;5041748;28;20081;-70
2022/09/01 04:39:56;;;;;;;2.85;1.65;;;;;;;;;;5032337;28;20045;-70
2022/09/01 04:42:24;;;;;;;2.70;1.75;;;;;;;;;;5048872;28;20451;-71
2022/09/01 04:44:51;;;;;;;5.45;2.10;;;;;;;;;;5053006;28;20045;-70
2022/09/01 04:47:18;;;;;;;3.63;1.83;;;;;;;;;;5059149;28;20063;-71
2022/09/01 04:49:46;;;;;;;5.53;2.20;;;;;;;;;;5052486;28;20041;-71
2022/09/01 04:52:13;;;;;;;3.83;2.05;;;;;;;;;;5049636;28;20110;-70
2022/09/01 04:54:39;;;;;;;3.85;2.20;;;;;;;;;;5049335;28;20068;-71
2022/09/01 04:57:05;;;;;;;8.05;2.15;;;;;;;;;;5050948;28;20520;-70
2022/09/01 04:59:32;;;;;;;5.18;2.30;;;;;;;;;;5053991;28;20048;-70
2022/09/01 05:02:00;;;;;;;3.00;1.85;;;;;;;;;;5055096;28;20049;-70
2022/09/01 05:04:27;;;;;;;5.60;2.15;;;;;;;;;;5058911;28;20059;-70
2022/09/01 05:06:59;;;;;;;7.82;2.40;;;;;;;;;;5050305;28;20059;-70
2022/09/01 05:09:26;;;;;;;5.43;1.88;;;;;;;;;;5054261;28;20056;-70
2022/09/01 05:11:52;;;;;;;6.32;2.10;;;;;;;;;;5040505;28;20539;-69
2022/09/01 05:14:20;;;;;;;5.57;2.45;;;;;;;;;;5046662;28;20052;-71
2022/09/01 05:16:48;;;;;;;6.07;2.25;;;;;;;;;;5040846;28;20110;-71
2022/09/01 05:19:16;;;;;;;4.10;2.15;;;;;;;;;;5037130;28;20048;-71
2022/09/01 05:21:44;;;;;;;3.78;2.08;;;;;;;;;;5040377;28;20484;-70
2022/09/01 05:24:14;;;;;;;3.80;2.10;;;;;;;;;;5040020;28;20064;-70
2022/09/01 05:26:41;;;;;;;4.95;2.47;;;;;;;;;;5039187;28;20528;-70
2022/09/01 05:29:12;;;;;;;8.52;2.60;;;;;;;;;;5042954;28;20083;-70
2022/09/01 05:31:39;;;;;;;8.30;2.70;;;;;;;;;;5044491;28;20072;-70
2022/09/01 05:34:08;;;;;;;6.45;2.78;;;;;;;;;;5035822;28;20048;-70
2022/09/01 05:36:36;;;;;;;4.68;2.15;;;;;;;;;;5038184;28;20543;-71
2022/09/01 05:39:03;;;;;;;6.70;2.45;;;;;;;;;;5045192;28;20043;-69
2022/09/01 05:41:30;;;;;;;4.03;2.35;;;;;;;;;;5051061;28;20079;-70
2022/09/01 05:43:57;;;;;;;5.13;2.50;;;;;;;;;;5048437;28;20041;-70
2022/09/01 05:46:25;;;;;;;4.53;2.13;;;;;;;;;;5047378;28;20040;-69
2022/09/01 05:48:52;;;;;;;4.70;2.50;;;;;;;;;;5048046;28;20116;-69
2022/09/01 05:51:21;;;;;;;6.45;2.60;;;;;;;;;;5049361;28;20393;-69
2022/09/01 05:53:50;;;;;;;4.65;2.50;;;;;;;;;;5050600;28;20087;-69
2022/09/01 05:56:18;;;;;;;4.55;2.40;;;;;;;;;;5049895;28;20514;-69
2022/09/01 05:58:46;;;;;;;7.72;2.55;;;;;;;;;;5050626;28;20029;-69
2022/09/01 06:01:20;;;;;;;7.32;3.05;;;;;;;;;;5057176;28;20127;-69
2022/09/01 06:03:47;;;;;;;6.60;2.55;;;;;;;;;;5057983;28;20037;-69
2022/09/01 06:06:14;;;;;;;4.68;2.67;;;;;;;;;;5062543;28;20060;-70
2022/09/01 06:08:41;;;;;;;5.25;2.83;;;;;;;;;;5048748;28;20046;-69
2022/09/01 06:11:13;;;;;;;6.03;2.53;;;;;;;;;;5048518;28;20075;-69
2022/09/01 06:13:41;;;;;;;7.15;2.30;;;;;;;;;;5054838;28;20037;-71
2022/09/01 06:16:08;;;;;;;6.03;2.85;;;;;;;;;;5063523;28;20040;-70
2022/09/01 06:18:36;;;;;;;4.72;2.65;;;;;;;;;;5058303;28;20132;-70
2022/09/01 06:21:03;;;;;;;3.63;2.00;;;;;;;;;;5062237;28;20124;-70
2022/09/01 06:23:30;;;;;;;4.22;2.60;;;;;;;;;;5058893;28;20043;-70
2022/09/01 06:25:58;;;;;;;5.40;2.58;;;;;;;;;;5057558;28;20045;-70
2022/09/01 06:28:25;;;;;;;4.68;2.47;;;;;;;;;;5064836;28;20048;-70
2022/09/01 06:30:52;;;;;;;3.70;2.03;;;;;;;;;;5053634;28;20072;-70
2022/09/01 06:33:19;;;;;;;7.22;2.38;;;;;;;;;;5059395;28;20074;-69
2022/09/01 06:35:46;;;;;;;3.70;2.30;;;;;;;;;;5055650;28;20060;-70
2022/09/01 06:38:16;;;;;;;4.70;2.55;;;;;;;;;;5056525;28;20072;-70
2022/09/01 06:40:42;;;;;;;4.28;2.33;;;;;;;;;;5055969;28;20071;-70
2022/09/01 06:43:10;;;;;;;4.22;2.25;;;;;;;;;;5058863;28;20056;-70
2022/09/01 06:45:40;;;;;;;4.75;2.13;;;;;;;;;;5058125;28;20055;-70
2022/09/01 06:48:07;;;;;;;4.22;2.20;;;;;;;;;;5058301;28;20041;-70
2022/09/01 06:50:33;;;;;;;15.25;2.38;;;;;;;;;;5060269;28;20167;-69
2022/09/01 06:53:02;;;;;;;3.95;1.90;;;;;;;;;;5058220;28;20060;-69
2022/09/01 06:55:32;;;;;;;4.10;1.98;;;;;;;;;;5060024;28;20048;-70
2022/09/01 06:57:59;;;;;;;6.53;2.33;;;;;;;;;;5058635;28;20044;-70
2022/09/01 07:00:27;;;;;;;5.80;1.90;;;;;;;;;;5057729;28;20052;-70
2022/09/01 07:02:56;;;;;;;4.78;2.28;;;;;;;;;;5060054;28;20048;-69
2022/09/01 07:05:22;;;;;;;4.10;2.38;;;;;;;;;;5054292;28;20055;-70
2022/09/01 07:07:50;;;;;;;4.75;2.33;;;;;;;;;;5056608;28;20099;-70
2022/09/01 07:10:21;;;;;;;5.78;2.45;;;;;;;;;;5054870;28;20049;-70
2022/09/01 07:12:49;;;;;;;5.30;2.38;;;;;;;;;;5059534;28;20120;-70
2022/09/01 07:15:16;;;;;;;4.95;1.88;;;;;;;;;;5054669;28;20079;-69
2022/09/01 07:17:48;;;;;;;3.78;2.28;;;;;;;;;;5057223;28;20099;-70
2022/09/01 07:20:15;;;;;;;4.47;1.95;;;;;;;;;;5058690;28;20123;-70
2022/09/01 07:22:41;;;;;;;4.55;2.20;;;;;;;;;;5058073;28;20116;-70
2022/09/01 07:25:11;;;;;;;5.32;2.72;;;;;;;;;;5058784;28;20143;-70
2022/09/01 07:27:37;;;;;;;6.22;2.33;;;;;;;;;;5057402;28;20048;-69
2022/09/01 07:30:08;;;;;;;4.05;2.30;;;;;;;;;;5057081;28;20084;-70
2022/09/01 07:32:35;;;;;;;3.47;1.90;;;;;;;;;;5058397;28;20075;-69
2022/09/01 07:35:02;;;;;;;3.97;2.17;;;;;;;;;;5053256;28;20124;-70
2022/09/01 07:37:28;;;;;;;3.85;2.05;;;;;;;;;;5057967;28;20064;-70
2022/09/01 07:39:55;;;;;;;5.63;2.13;;;;;;;;;;5060100;28;20442;-70
2022/09/01 07:42:21;;;;;;;6.78;2.40;;;;;;;;;;5057106;28;20446;-70
2022/09/01 07:44:47;;;;;;;5.18;2.72;;;;;;;;;;5056454;28;20497;-70
2022/09/01 07:47:14;;;;;;;5.53;2.40;;;;;;;;;;5055791;28;20044;-70
2022/09/01 07:49:41;;;;;;;5.88;2.30;;;;;;;;;;5049309;28;20094;-70
2022/09/01 07:52:07;;;;;;;4.18;2.22;;;;;;;;;;5050645;28;20102;-70
2022/09/01 07:54:34;;;;;;;3.60;2.10;;;;;;;;;;5051610;28;20053;-70
2022/09/01 07:57:01;;;;;;;7.47;2.40;;;;;;;;;;5054517;28;20115;-70
2022/09/01 07:59:28;;;;;;;3.75;2.30;;;;;;;;;;5056209;28;20407;-70
2022/09/01 08:01:55;;;;;;;3.85;2.20;;;;;;;;;;5050371;28;20052;-70
2022/09/01 08:04:22;;;;;;;4.47;2.10;;;;;;;;;;5047356;28;20044;-70
2022/09/01 08:06:48;;;;;;;5.10;1.88;;;;;;;;;;5053599;28;20037;-69
2022/09/01 08:09:15;;;;;;;7.65;1.85;;;;;;;;;;5053914;28;20044;-70
2022/09/01 08:11:41;;;;;;;5.30;2.25;;;;;;;;;;5058507;28;20161;-70
2022/09/01 08:14:08;;;;;;;5.38;2.30;;;;;;;;;;5052221;28;20037;-70
2022/09/01 08:16:34;;;;;;;3.47;1.92;;;;;;;;;;5061408;28;20385;-72
2022/09/01 08:19:00;;;;;;;6.75;2.55;;;;;;;;;;5055737;28;20554;-72
2022/09/01 08:21:26;;;;;;;4.57;1.50;;;;;;;;;;5054318;28;20107;-72
2022/09/01 08:23:54;;;;;;;4.60;1.75;;;;;;;;;;5059216;28;20030;-72
2022/09/01 08:26:22;;;;;;;5.07;2.03;;;;;;;;;;5034121;28;20076;-72
2022/09/01 08:28:48;;;;;;;5.30;2.13;;;;;;;;;;5054135;28;20044;-72
2022/09/01 08:31:16;;;;;;;5.75;2.33;;;;;;;;;;5054616;28;20076;-73
2022/09/01 08:33:43;;;;;;;4.38;1.98;;;;;;;;;;5051726;28;20049;-73
2022/09/01 08:36:10;;;;;;;5.03;1.85;;;;;;;;;;5065431;28;20102;-73
2022/09/01 08:38:36;;;;;;;4.45;2.03;;;;;;;;;;5054651;28;20090;-74
2022/09/01 08:41:05;;;;;;;3.85;2.13;;;;;;;;;;5053450;28;20049;-73
2022/09/01 08:43:31;;;;;;;3.95;1.65;;;;;;;;;;5053394;28;20171;-72
2022/09/01 08:46:02;;;;;;;5.50;1.50;;;;;;;;;;5052617;28;20408;-74
2022/09/01 08:48:36;;;;;;;4.95;1.73;;;;;;;;;;5053720;28;20048;-74
2022/09/01 08:51:09;;;;;;;4.55;1.60;;;;;;;;;;5052498;28;20048;-74
2022/09/01 08:53:41;;;;;;;5.57;1.52;;;;;;;;;;5046749;28;20056;-74
2022/09/01 08:56:09;;;;;;;8.40;1.50;;;;;;;;;;5055251;28;20131;-74
2022/09/01 08:58:35;;;;;;;4.90;2.00;;;;;;;;;;5052830;28;20056;-75
2022/09/01 09:01:04;;;;;;;5.18;1.92;;;;;;;;;;5052328;28;20449;-74
2022/09/01 09:03:38;;;;;;;3.90;2.00;;;;;;;;;;5052996;28;20041;-68
2022/09/01 09:06:07;;;;;;;5.43;1.80;;;;;;;;;;5054262;28;20130;-73
2022/09/01 09:08:40;;;;;;;4.78;1.98;;;;;;;;;;5063089;28;20041;-73
2022/09/01 09:11:13;;;;;;;4.22;2.13;;;;;;;;;;5066845;28;20113;-73
2022/09/01 09:13:54;;;;;;;4.07;2.10;;;;;;;;;;5061690;28;20044;-73
2022/09/01 09:16:23;;;;;;;8.57;2.10;;;;;;;;;;5061667;28;20417;-72
2022/09/01 09:18:53;;;;;;;4.68;1.75;;;;;;;;;;5057129;28;20147;-73
2022/09/01 09:21:25;;;;;;;5.95;1.75;;;;;;;;;;5066677;28;20040;-73
2022/09/01 09:23:56;;;;;;;3.97;1.50;;;;;;;;;;5060977;28;20091;-73
2022/09/01 09:26:22;;;;;;;3.20;1.40;;;;;;;;;;5064838;28;20063;-73
2022/09/01 09:28:48;;;;;;;3.85;1.70;;;;;;;;;;5065316;28;20128;-73
2022/09/01 09:31:25;;;;;;;3.58;1.30;;;;;;;;;;5059815;28;20052;-73
2022/09/01 09:33:51;;;;;;;2.78;1.27;;;;;;;;;;5065891;28;20033;-73
2022/09/01 09:36:19;;;;;;;6.38;1.58;;;;;;;;;;5056916;28;20057;-73
2022/09/01 09:38:45;;;;;;;3.83;1.25;;;;;;;;;;5068121;28;20443;-73
2022/09/01 09:41:12;;;;;;;2.97;1.15;;;;;;;;;;5061820;28;20548;-73
2022/09/01 09:43:43;;;;;;;6.55;1.90;;;;;;;;;;5066968;28;20060;-73
2022/09/01 09:46:32;;;;;;;5.55;1.30;;;;;;;;;;5061739;28;20048;-72
2022/09/01 09:49:06;;;;;;;3.28;1.25;;;;;;;;;;5061512;28;20370;-73
2022/09/01 09:51:32;;;;;;;;;;;;;;;;;;5062642;28;20044;-73
2022/09/01 09:54:17;;;;;;;2.78;1.40;;;;;;;;;;5063611;28;19927;-73
2022/09/01 09:56:44;;;;;;;2.75;1.33;;;;;;;;;;5064349;28;20068;-73
2022/09/01 09:59:18;;;;;;;4.55;1.38;;;;;;;;;;5064353;28;20037;-73
2022/09/01 10:01:45;;;;;;;6.78;1.35;;;;;;;;;;5063042;28;20044;-73
2022/09/01 10:04:30;;;;;;;3.20;1.65;;;;;;;;;;5067767;28;20037;-73
2022/09/01 10:06:56;;;;;;;3.50;1.33;;;;;;;;;;5059827;28;20048;-73
2022/09/01 10:09:23;;;;;;;4.97;1.67;;;;;;;;;;5064604;28;20109;-73
2022/09/01 10:11:51;;;;;;;3.67;1.27;;;;;;;;;;5061780;28;20045;-73
2022/09/01 10:14:20;;;;;;;5.63;1.70;;;;;;;;;;5066043;28;20123;-73
2022/09/01 10:16:47;;;;;;;3.22;1.50;;;;;;;;;;5061673;28;20431;-72
2022/09/01 10:19:14;;;;;;;2.95;1.00;;;;;;;;;;5066664;28;20441;-73
2022/09/01 10:21:42;;;;;;;3.30;1.38;;;;;;;;;;5063157;28;20048;-73
2022/09/01 10:24:19;;;;;;;2.95;1.23;;;;;;;;;;5064190;28;20029;-73
2022/09/01 10:26:46;;;;;;;2.20;0.90;;;;;;;;;;5064511;28;20106;-73
2022/09/01 10:29:14;;;;;;;2.92;1.15;;;;;;;;;;5057946;28;20113;-73
2022/09/01 10:31:41;;;;;;;3.83;1.10;;;;;;;;;;5066247;28;20138;-73
2022/09/01 10:34:12;;;;;;;6.47;1.10;;;;;;;;;;5053581;28;20049;-73
2022/09/01 10:36:40;;;;;;;3.83;1.00;;;;;;;;;;5062966;28;20147;-73
2022/09/01 10:39:10;;;;;;;4.40;0.93;;;;;;;;;;5062049;28;20064;-73
2022/09/01 10:41:42;;;;;;;2.95;1.00;;;;;;;;;;5062809;28;20101;-74
2022/09/01 10:44:09;;;;;;;3.80;1.15;;;;;;;;;;5064782;28;20468;-73
2022/09/01 10:46:35;;;;;;;4.28;0.98;;;;;;;;;;5062530;28;20044;-74
2022/09/01 10:49:02;;;;;;;2.45;0.98;;;;;;;;;;5066013;28;20077;-74
2022/09/01 10:51:28;;;;;;;6.68;1.02;;;;;;;;;;5059930;28;20041;-74
2022/09/01 10:53:56;;;;;;;3.75;0.90;;;;;;;;;;5066345;28;20064;-74
2022/09/01 10:56:24;;;;;;;3.10;1.15;;;;;;;;;;5062295;28;20045;-74
2022/09/01 10:59:00;;;;;;;2.13;0.93;;;;;;;;;;5066378;28;20441;-73
2022/09/01 11:01:50;;;;;;;2.33;0.98;;;;;;;;;;5062967;28;20055;-74
2022/09/01 11:04:18;;;;;;;2.20;0.85;;;;;;;;;;5060452;28;20083;-73
2022/09/01 11:06:54;;;;;;;2.83;1.00;;;;;;;;;;5061825;28;20500;-73
2022/09/01 11:09:21;;;;;;;5.00;0.85;;;;;;;;;;5065122;28;20032;-73
2022/09/01 11:11:56;;;;;;;2.47;0.95;;;;;;;;;;5062626;28;20527;-73
2022/09/01 11:14:25;;;;;;;2.88;1.05;;;;;;;;;;5058899;28;20511;-73
2022/09/01 11:17:10;;;;;;;4.25;0.82;;;;;;;;;;5063447;28;20046;-72
2022/09/01 11:19:38;;;;;;;2.97;1.20;;;;;;;;;;5054988;28;20051;-73
2022/09/01 11:22:11;;;;;;;1.80;0.82;;;;;;;;;;5063614;28;20051;-73
2022/09/01 11:24:38;;;;;;;3.50;0.85;;;;;;;;;;5060448;28;20127;-74
2022/09/01 11:27:06;;;;;;;2.95;1.13;;;;;;;;;;5053903;28;20080;-69
2022/09/01 11:29:51;;;;;;;2.67;0.73;;;;;;;;;;5057984;28;20051;-69
2022/09/01 11:32:17;;;;;;;3.08;1.00;;;;;;;;;;5057718;28;20060;-69
2022/09/01 11:34:45;;;;;;;2.40;0.60;;;;;;;;;;5046812;28;20478;-70
2022/09/01 11:37:15;;;;;;;3.92;0.80;;;;;;;;;;5056565;28;20076;-70
2022/09/01 11:39:46;;;;;;;3.85;0.98;;;;;;;;;;5057953;28;20044;-70
2022/09/01 11:42:18;;;;;;;3.28;0.85;;;;;;;;;;5055540;28;20094;-70
2022/09/01 11:44:48;;;;;;;5.45;1.25;;;;;;;;;;5057193;28;20102;-69
2022/09/01 11:47:25;;;;;;;3.40;0.80;;;;;;;;;;5054666;28;20704;-70
2022/09/01 11:49:53;;;;;;;2.08;0.80;;;;;;;;;;5065042;28;20052;-70
2022/09/01 11:52:20;;;;;;;4.13;0.90;;;;;;;;;;5065686;28;20153;-69
2022/09/01 11:54:47;;;;;;;1.73;0.70;;;;;;;;;;5061774;28;20067;-70
2022/09/01 11:57:21;;;;;;;2.92;0.70;;;;;;;;;;5068021;28;20123;-70
2022/09/01 11:59:47;;;;;;;3.25;0.75;;;;;;;;;;5061479;28;20150;-70
2022/09/01 12:02:21;;;;;;;1.58;0.65;;;;;;;;;;5065237;28;20649;-70
2022/09/01 12:04:49;;;;;;;11.07;0.90;;;;;;;;;;5063733;28;20040;-70
2022/09/01 12:07:24;;;;;;;4.88;0.68;;;;;;;;;;5059578;28;20430;-70
2022/09/01 12:09:51;;;;;;;3.33;0.73;;;;;;;;;;5062019;28;21232;-70
2022/09/01 12:12:26;;;;;;;4.30;0.95;;;;;;;;;;5061454;28;20497;-69
2022/09/01 12:14:57;;;;;;;3.15;0.80;;;;;;;;;;5059673;28;20490;-70
2022/09/01 12:17:24;;;;;;;3.72;0.90;;;;;;;;;;5062798;28;20369;-69
2022/09/01 12:19:50;;;;;;;1.48;0.57;;;;;;;;;;5066274;28;20036;-70
2022/09/01 12:22:20;;;;;;;3.47;0.80;;;;;;;;;;5061308;28;20040;-70
2022/09/01 12:24:48;;;;;;;4.78;0.80;;;;;;;;;;5061315;28;20084;-70
2022/09/01 12:27:14;;;;;;;1.48;0.65;;;;;;;;;;5076172;28;20115;-70
2022/09/01 12:29:41;;;;;;;1.33;0.65;;;;;;;;;;5059713;28;20705;-70
2022/09/01 12:32:08;;;;;;;1.05;0.60;;;;;;;;;;5062036;28;20586;-70
2022/09/01 12:34:37;;;;;;;2.60;0.90;;;;;;;;;;5064435;28;20405;-70
2022/09/01 12:37:10;;;;;;;4.15;1.05;;;;;;;;;;5064043;28;20048;-69
2022/09/01 12:39:38;;;;;;;2.80;0.80;;;;;;;;;;5060119;28;20090;-69
2022/09/01 12:42:23;;;;;;;3.55;0.88;;;;;;;;;;5060788;28;20492;-70
2022/09/01 12:44:50;;;;;;;4.47;0.98;;;;;;;;;;5061999;28;20056;-69
2022/09/01 12:47:46;;;;;;;6.35;0.90;;;;;;;;;;5064459;28;20103;-70
2022/09/01 12:50:13;;;;;;;3.90;0.82;;;;;;;;;;5063507;28;20050;-69
2022/09/01 12:52:49;;;;;;;6.22;0.68;;;;;;;;;;5067729;28;20048;-69
2022/09/01 12:55:17;;;;;;;1.60;0.60;;;;;;;;;;5062142;28;20806;-69
2022/09/01 12:57:50;;;;;;;3.08;0.73;;;;;;;;;;5052732;28;20128;-69
2022/09/01 13:00:19;;;;;;;1.55;0.80;;;;;;;;;;5056426;28;20056;-69
2022/09/01 13:02:46;;;;;;;2.67;0.63;;;;;;;;;;5047773;28;20091;-67
2022/09/01 13:05:19;;;;;;;4.25;0.93;;;;;;;;;;5045714;28;20094;-67
2022/09/01 13:07:45;;;;;;;4.05;0.90;;;;;;;;;;5051543;28;20044;-67
2022/09/01 13:10:11;;;;;;;4.93;0.60;;;;;;;;;;5052812;28;20223;-67
2022/09/01 13:12:42;;;;;;;4.18;0.73;;;;;;;;;;5053770;28;20074;-67
2022/09/01 13:15:09;;;;;;;3.08;0.80;;;;;;;;;;5056942;28;20125;-67
2022/09/01 13:17:36;;;;;;;4.35;0.80;;;;;;;;;;5040247;28;20543;-67
2022/09/01 13:20:03;;;;;;;1.40;0.60;;;;;;;;;;5044136;28;20060;-68
2022/09/01 13:22:29;;;;;;;4.38;0.85;;;;;;;;;;5042008;28;20037;-67
2022/09/01 13:24:55;;;;;;;1.67;0.55;;;;;;;;;;5057097;28;20370;-67
2022/09/01 13:27:22;;;;;;;3.58;0.70;;;;;;;;;;5055802;28;20041;-67
2022/09/01 13:29:49;;;;;;;4.72;0.52;;;;;;;;;;5050612;28;20550;-68
2022/09/01 13:32:16;;;;;;;5.63;0.70;;;;;;;;;;5052783;28;20052;-68
2022/09/01 13:34:42;;;;;;;2.92;0.60;;;;;;;;;;5050690;28;20104;-67
2022/09/01 13:37:08;;;;;;;2.47;0.60;;;;;;;;;;5053462;28;20076;-67
2022/09/01 13:39:34;;;;;;;3.25;0.90;;;;;;;;;;5037417;28;20207;-67
2022/09/01 13:42:01;;;;;;;2.47;0.60;;;;;;;;;;5042169;28;20049;-67
2022/09/01 13:44:27;;;;;;;3.15;0.80;;;;;;;;;;5052144;28;20048;-68
2022/09/01 13:46:54;;;;;;;1.85;0.80;;;;;;;;;;5049755;28;20383;-67
2022/09/01 13:49:20;;;;;;;2.55;0.50;;;;;;;;;;5052861;28;20130;-67
2022/09/01 13:51:52;;;;;;;1.92;0.70;;;;;;;;;;5044888;28;20532;-67
2022/09/01 13:54:19;;;;;;;1.65;0.70;;;;;;;;;;5045708;28;20049;-67
2022/09/01 13:56:45;;;;;;;3.75;0.70;;;;;;;;;;5049151;28;20048;-67
2022/09/01 13:59:11;;;;;;;2.35;0.50;;;;;;;;;;5053178;28;20088;-67
2022/09/01 14:01:39;;;;;;;2.28;0.60;;;;;;;;;;5049499;28;20498;-67
2022/09/01 14:04:06;;;;;;;2.33;0.70;;;;;;;;;;5049184;28;21801;-67
2022/09/01 14:06:32;;;;;;;4.28;1.00;;;;;;;;;;5053578;28;20086;-67
2022/09/01 14:08:59;;;;;;;2.22;0.80;;;;;;;;;;5044504;28;20045;-67
2022/09/01 14:11:26;;;;;;;2.08;0.77;;;;;;;;;;5046466;28;20040;-67
2022/09/01 14:13:52;;;;;;;3.58;0.90;;;;;;;;;;5041183;28;20464;-67
2022/09/01 14:16:19;;;;;;;3.28;0.70;;;;;;;;;;5049560;28;20511;-67
2022/09/01 14:18:45;;;;;;;1.60;0.65;;;;;;;;;;5047654;28;20028;-67
2022/09/01 14:21:14;;;;;;;1.58;0.52;;;;;;;;;;5051576;28;20094;-67
2022/09/01 14:23:40;;;;;;;2.85;0.90;;;;;;;;;;5059605;28;20049;-67
2022/09/01 14:26:08;;;;;;;4.60;0.90;;;;;;;;;;5054887;28;20172;-67
2022/09/01 14:28:34;;;;;;;4.82;0.90;;;;;;;;;;5046286;28;20172;-67
2022/09/01 14:31:04;;;;;;;6.57;0.90;;;;;;;;;;5055286;28;20042;-67
2022/09/01 14:33:31;;;;;;;2.72;0.80;;;;;;;;;;5053042;28;20053;-67
2022/09/01 14:35:57;;;;;;;4.07;0.75;;;;;;;;;;5047486;28;20111;-66
2022/09/01 14:38:23;;;;;;;3.25;1.10;;;;;;;;;;5045569;28;20084;-67
2022/09/01 14:40:51;;;;;;;2.58;0.98;;;;;;;;;;5068328;28;20072;-67
2022/09/01 14:43:17;;;;;;;12.70;1.13;;;;;;;;;;5048415;28;20396;-67
2022/09/01 14:45:45;;;;;;;6.88;1.00;;;;;;;;;;5057131;28;20052;-67
2022/09/01 14:48:14;;;;;;;4.30;1.42;;;;;;;;;;5056778;28;20045;-67
2022/09/01 14:50:41;;;;;;;6.00;0.95;;;;;;;;;;5052013;28;20453;-67
2022/09/01 14:53:08;;;;;;;8.82;1.10;;;;;;;;;;5058886;28;20064;-67
2022/09/01 14:55:34;;;;;;;7.05;1.40;;;;;;;;;;5057706;28;20044;-67
2022/09/01 14:58:00;;;;;;;3.47;1.02;;;;;;;;;;5055673;28;20119;-67